DAUE

El Golea Airport

Algeria
METAR DAUE 250500Z 05004KT CAVOK 20/09 Q1012
Observed Flight Rules
May-25 @ 05:00 UTC (24 minutes ago) Visual Flight Rules
Wind Visibility Clouds
50° at 4 knots 10,000+ meters
  • Clear skies
Temperatures Readings
Current 20°C / 68°F
Dewpoint 9°C / 48°F
Humidity 49%
Altimeter 29.88" Hg
Pressure 1012 hPa
Elevation 397
METAR DAUE 250500Z 05004KT CAVOK 20/09 Q1012
Observed Flight Rules
May-25 @ 05:00 UTC
(24 minutes ago)
VFR
Wind Visibility
50° at 4 knots 10,000+ meters
Clouds
  • Clear skies
Temperature Dewpoint
20°C / 68°F 9°C / 48°F
Humidity Altimeter Pressure
49% 29.88" Hg 1012 hPa